KDNL

Daniel Field Airport

Augusta, Georgia, USA
METAR KDNL 230222Z AUTO 13004KT 10SM SCT024 SCT060 BKN080 23/22 A3012 RMK AO2 T02330222
Observed Flight Rules
May-23 @ 02:22 UTC (25 minutes ago) Visual Flight Rules
Wind Visibility Clouds
130° at 4 knots 10 miles
  • Scattered at 2,400' AGL
  • Scattered at 6,000' AGL
  • Broken at 8,000' AGL
Temperatures Readings
Current 23°C / 73°F
Dewpoint 22°C / 72°F
Humidity 94%
Altimeter 30.12" Hg
Pressure 1020 hPa
Elevation 130
METAR KDNL 230222Z AUTO 13004KT 10SM SCT024 SCT060 BKN080 23/22 A3012 RMK AO2 T02330222
Observed Flight Rules
May-23 @ 02:22 UTC
(25 minutes ago)
VFR
Wind Visibility
130° at 4 knots 10 miles
Clouds
  • Scattered at 2,400' AGL
  • Scattered at 6,000' AGL
  • Broken at 8,000' AGL
Temperature Dewpoint
23°C / 73°F 22°C / 72°F
Humidity Altimeter Pressure
94% 30.12" Hg 1020 hPa